createdAt,value
2018-07-04T00:01:46.162Z,7.03
2018-07-04T00:04:25.696Z,6.40
2018-07-04T00:07:05.174Z,5.87
2018-07-04T00:09:44.558Z,5.90
2018-07-04T00:12:24.000Z,6.17
2018-07-04T00:15:03.398Z,5.37
2018-07-04T00:17:43.318Z,5.70
2018-07-04T00:20:40.677Z,4.77
2018-07-04T00:23:20.157Z,5.90
2018-07-04T00:25:59.616Z,6.17
2018-07-04T00:28:39.177Z,6.50
2018-07-04T00:31:18.778Z,6.30
2018-07-04T00:33:58.307Z,5.03
2018-07-04T00:36:37.765Z,6.00
2018-07-04T00:39:17.309Z,5.50
2018-07-04T00:41:56.872Z,6.20
2018-07-04T00:44:36.294Z,6.20
2018-07-04T00:47:15.806Z,6.13
2018-07-04T00:49:55.335Z,6.20
2018-07-04T00:52:35.017Z,6.40
2018-07-04T00:55:14.650Z,5.77
2018-07-04T00:57:54.174Z,5.20
2018-07-04T01:00:33.803Z,5.90
2018-07-04T01:03:13.552Z,6.07
2018-07-04T01:05:53.319Z,6.17
2018-07-04T01:08:33.167Z,6.00
2018-07-04T01:11:12.935Z,6.40
2018-07-04T01:13:52.485Z,6.43
2018-07-04T01:16:32.186Z,5.67
2018-07-04T01:19:11.978Z,6.10
2018-07-04T01:21:51.689Z,6.00
2018-07-04T01:24:31.403Z,6.33
2018-07-04T01:27:11.270Z,6.47
2018-07-04T01:29:51.029Z,5.77
2018-07-04T01:32:30.719Z,6.23
2018-07-04T01:35:10.290Z,5.70
2018-07-04T01:37:50.195Z,5.63
2018-07-04T01:40:29.862Z,6.13
2018-07-04T01:43:09.384Z,6.13
2018-07-04T01:45:49.164Z,6.37
2018-07-04T01:48:28.721Z,6.13
2018-07-04T01:51:08.201Z,6.23
2018-07-04T01:53:48.006Z,6.60
2018-07-04T01:56:28.076Z,6.27
2018-07-04T01:59:07.749Z,6.10
2018-07-04T02:01:47.579Z,6.27
2018-07-04T02:04:27.366Z,6.87
2018-07-04T02:07:07.045Z,5.90
2018-07-04T02:09:46.785Z,6.90
2018-07-04T02:12:21.154Z,6.47
2018-07-04T02:15:00.874Z,6.07
2018-07-04T02:17:40.686Z,6.30
2018-07-04T02:20:20.531Z,6.70
2018-07-04T02:23:00.126Z,6.10
2018-07-04T02:25:40.070Z,6.30
2018-07-04T02:28:19.793Z,6.00
2018-07-04T02:30:59.248Z,6.07
2018-07-04T02:33:38.962Z,6.30
2018-07-04T02:36:18.583Z,5.70
2018-07-04T02:38:58.125Z,5.90
2018-07-04T02:41:37.772Z,6.67
2018-07-04T02:44:17.233Z,6.70
2018-07-04T02:46:56.763Z,6.40
2018-07-04T02:49:36.413Z,6.20
2018-07-04T02:52:15.858Z,6.30
2018-07-04T02:54:55.429Z,6.47
2018-07-04T02:57:34.968Z,7.30
2018-07-04T03:00:14.603Z,6.10
2018-07-04T03:02:54.026Z,6.60
2018-07-04T03:05:33.628Z,6.20
2018-07-04T03:08:13.201Z,7.10
2018-07-04T03:10:52.705Z,6.50
2018-07-04T03:13:32.164Z,6.73
2018-07-04T03:16:11.811Z,6.57
2018-07-04T03:18:51.309Z,6.30
2018-07-04T03:21:31.053Z,6.40
2018-07-04T03:24:10.716Z,6.57
2018-07-04T03:26:50.410Z,6.80
2018-07-04T03:29:29.989Z,7.00
2018-07-04T03:32:09.529Z,6.20
2018-07-04T03:34:49.002Z,6.90
2018-07-04T03:37:22.607Z,6.90
2018-07-04T03:40:02.126Z,7.20
2018-07-04T03:42:41.724Z,6.37
2018-07-04T03:45:21.311Z,7.07
2018-07-04T03:48:00.811Z,6.80
2018-07-04T03:50:40.305Z,7.60
2018-07-04T03:53:19.983Z,6.60
2018-07-04T03:55:59.515Z,6.37
2018-07-04T03:58:39.012Z,6.70
2018-07-04T04:01:18.450Z,6.03
2018-07-04T04:03:58.254Z,7.07
2018-07-04T04:06:37.935Z,6.53
2018-07-04T04:09:17.597Z,6.20
2018-07-04T04:11:57.406Z,5.97
2018-07-04T04:14:37.190Z,6.33
2018-07-04T04:17:16.914Z,7.00
2018-07-04T04:19:56.570Z,6.73
2018-07-04T04:22:36.279Z,6.73
2018-07-04T04:25:15.920Z,7.53
2018-07-04T04:27:55.760Z,6.50
2018-07-04T04:30:35.369Z,6.20
2018-07-04T04:33:15.087Z,7.00
2018-07-04T04:35:54.758Z,5.90
2018-07-04T04:38:34.473Z,6.40
2018-07-04T04:41:14.063Z,5.87
2018-07-04T04:43:53.901Z,6.43
2018-07-04T04:46:33.401Z,6.23
2018-07-04T04:49:12.902Z,6.37
2018-07-04T04:51:52.589Z,5.70
2018-07-04T04:54:32.108Z,5.93
2018-07-04T04:57:11.733Z,5.30
2018-07-04T04:59:51.156Z,6.20
2018-07-04T05:02:30.770Z,6.40
2018-07-04T05:05:10.271Z,6.43
2018-07-04T05:07:49.921Z,5.90
2018-07-04T05:10:29.814Z,7.07
2018-07-04T05:13:09.629Z,7.00
2018-07-04T05:15:49.239Z,6.80
2018-07-04T05:18:29.038Z,6.83
2018-07-04T05:21:08.861Z,6.53
2018-07-04T05:23:48.440Z,6.53
2018-07-04T05:26:27.959Z,6.43
2018-07-04T05:29:07.763Z,6.60
2018-07-04T05:31:47.369Z,6.40
2018-07-04T05:34:26.809Z,5.67
2018-07-04T05:37:06.355Z,6.33
2018-07-04T05:39:45.881Z,6.00
2018-07-04T05:42:25.360Z,6.30
2018-07-04T05:45:04.876Z,6.63
2018-07-04T05:47:44.551Z,6.30
2018-07-04T05:50:24.218Z,5.87
2018-07-04T05:53:03.514Z,5.80
2018-07-04T05:55:43.189Z,5.70
2018-07-04T05:58:22.666Z,5.83
2018-07-04T06:01:02.367Z,6.23
2018-07-04T06:03:41.848Z,5.60
2018-07-04T06:06:21.416Z,6.03
2018-07-04T06:09:01.214Z,6.17
2018-07-04T06:11:45.614Z,5.73
2018-07-04T06:14:25.407Z,5.40
2018-07-04T06:17:05.218Z,5.47
2018-07-04T06:19:44.867Z,5.50
2018-07-04T06:22:24.606Z,5.30
2018-07-04T06:25:04.254Z,5.30
2018-07-04T06:27:43.932Z,5.70
2018-07-04T06:30:23.294Z,5.17
2018-07-04T06:33:02.727Z,5.47
2018-07-04T06:35:42.317Z,5.23
2018-07-04T06:38:09.472Z,5.03
2018-07-04T06:40:36.650Z,5.87
2018-07-04T06:43:03.805Z,5.80
2018-07-04T06:45:30.971Z,5.83
2018-07-04T06:47:58.124Z,5.60
2018-07-04T06:50:25.290Z,5.63
2018-07-04T06:52:52.437Z,5.60
2018-07-04T06:55:19.618Z,5.27
2018-07-04T06:57:46.798Z,5.77
2018-07-04T07:00:13.966Z,5.83
2018-07-04T07:02:41.123Z,5.17
2018-07-04T07:05:20.830Z,6.30
2018-07-04T07:08:00.493Z,5.47
2018-07-04T07:10:40.114Z,5.50
2018-07-04T07:13:19.778Z,4.77
2018-07-04T07:15:59.378Z,4.97
2018-07-04T07:18:38.958Z,4.67
2018-07-04T07:21:18.665Z,4.70
2018-07-04T07:23:58.336Z,4.37
2018-07-04T07:26:37.953Z,4.30
2018-07-04T07:29:17.545Z,3.80
2018-07-04T07:31:57.110Z,4.40
2018-07-04T07:34:36.614Z,3.97
2018-07-04T07:37:16.141Z,4.13
2018-07-04T07:39:55.780Z,3.60
2018-07-04T07:42:35.433Z,4.00
2018-07-04T07:45:14.984Z,3.90
2018-07-04T07:47:54.620Z,3.40
2018-07-04T07:50:34.282Z,3.70
2018-07-04T07:53:13.881Z,3.23
2018-07-04T07:55:53.545Z,3.67
2018-07-04T07:58:33.029Z,2.83
2018-07-04T08:01:12.754Z,3.60
2018-07-04T08:03:52.165Z,3.50
2018-07-04T08:06:31.701Z,3.50
2018-07-04T08:09:11.179Z,3.20
2018-07-04T08:11:50.456Z,4.10
2018-07-04T08:14:29.889Z,4.00
2018-07-04T08:17:09.457Z,3.57
2018-07-04T08:19:48.972Z,3.90
2018-07-04T08:22:28.641Z,3.70
2018-07-04T08:25:08.296Z,3.87
2018-07-04T08:27:47.978Z,3.80
2018-07-04T08:30:27.358Z,3.50
2018-07-04T08:33:06.923Z,3.87
2018-07-04T08:35:46.530Z,3.93
2018-07-04T08:38:26.129Z,3.90
2018-07-04T08:41:05.664Z,4.40
2018-07-04T08:43:45.283Z,3.73
2018-07-04T08:46:24.793Z,3.10
2018-07-04T08:49:04.348Z,2.90
2018-07-04T08:51:43.998Z,2.73
2018-07-04T08:54:23.639Z,3.27
2018-07-04T08:57:03.163Z,2.80
2018-07-04T08:59:42.813Z,3.43
2018-07-04T09:02:22.537Z,3.37
2018-07-04T09:05:02.130Z,3.23
2018-07-04T09:07:42.825Z,3.50
2018-07-04T09:10:22.531Z,3.13
2018-07-04T09:13:02.361Z,3.33
2018-07-04T09:15:42.010Z,3.17
2018-07-04T09:18:21.849Z,3.30
2018-07-04T09:21:01.871Z,3.27
2018-07-04T09:23:41.195Z,3.50
2018-07-04T09:26:20.805Z,3.00
2018-07-04T09:29:00.394Z,3.30
2018-07-04T09:31:39.943Z,2.87
2018-07-04T09:34:19.541Z,2.80
2018-07-04T09:36:59.020Z,3.87
2018-07-04T09:39:38.686Z,3.67
2018-07-04T09:42:18.205Z,3.90
2018-07-04T09:44:57.854Z,3.23
2018-07-04T09:47:37.518Z,3.17
2018-07-04T09:50:17.030Z,3.20
2018-07-04T09:52:56.659Z,3.63
2018-07-04T09:55:36.175Z,3.33
2018-07-04T09:58:20.097Z,3.33
2018-07-04T10:01:05.011Z,3.93
2018-07-04T10:03:44.676Z,3.27
2018-07-04T10:06:24.398Z,3.87
2018-07-04T10:09:04.652Z,3.23
2018-07-04T10:11:44.222Z,3.90
2018-07-04T10:14:23.782Z,3.70
2018-07-04T10:17:03.377Z,3.63
2018-07-04T10:19:42.926Z,3.80
2018-07-04T10:22:22.505Z,3.90
2018-07-04T10:25:02.012Z,3.87
2018-07-04T10:27:41.642Z,4.20
2018-07-04T10:30:21.174Z,4.80
2018-07-04T10:33:00.838Z,5.00
2018-07-04T10:35:40.362Z,5.73
2018-07-04T10:38:20.055Z,6.30
2018-07-04T10:40:59.754Z,5.57
2018-07-04T10:43:39.446Z,5.30
2018-07-04T10:46:18.965Z,5.87
2018-07-04T10:48:58.594Z,5.10
2018-07-04T10:51:38.193Z,5.20
2018-07-04T10:54:17.784Z,6.57
2018-07-04T10:56:57.503Z,4.67
2018-07-04T10:59:37.030Z,4.13
2018-07-04T11:02:16.501Z,5.00
2018-07-04T11:04:56.278Z,6.53
2018-07-04T11:07:36.003Z,7.40
2018-07-04T11:10:15.985Z,7.87
2018-07-04T11:12:55.572Z,7.50
2018-07-04T11:15:35.165Z,9.27
2018-07-04T11:18:14.794Z,8.37
2018-07-04T11:20:54.462Z,8.80
2018-07-04T11:23:33.988Z,7.90
2018-07-04T11:26:13.501Z,7.80
2018-07-04T11:28:53.146Z,7.40
2018-07-04T11:31:32.668Z,8.03
2018-07-04T11:34:12.355Z,8.23
2018-07-04T11:36:51.841Z,8.23
2018-07-04T11:39:31.464Z,8.00
2018-07-04T11:42:10.971Z,8.17
2018-07-04T11:44:50.822Z,6.97
2018-07-04T11:47:18.038Z,7.90
2018-07-04T11:49:45.226Z,8.17
2018-07-04T11:52:12.420Z,8.80
2018-07-04T11:54:39.628Z,8.50
2018-07-04T11:57:06.845Z,7.80
2018-07-04T11:59:33.951Z,8.30
2018-07-04T12:02:01.117Z,7.00
2018-07-04T12:04:40.766Z,8.30
2018-07-04T12:07:09.242Z,7.63
2018-07-04T12:09:37.733Z,8.63
2018-07-04T12:12:04.900Z,8.17
2018-07-04T12:14:32.336Z,8.77
2018-07-04T12:16:59.978Z,9.10
2018-07-04T12:19:27.324Z,7.93
2018-07-04T12:21:54.591Z,8.50
2018-07-04T12:24:21.813Z,9.80
2018-07-04T12:26:48.996Z,9.13
2018-07-04T12:29:16.129Z,8.20
2018-07-04T12:31:43.294Z,8.00
2018-07-04T12:34:10.458Z,8.40
2018-07-04T12:36:37.610Z,9.07
2018-07-04T12:39:05.357Z,9.93
2018-07-04T12:41:32.551Z,9.33
2018-07-04T12:43:59.734Z,8.83
2018-07-04T12:46:26.902Z,8.57
2018-07-04T12:48:59.453Z,7.80
2018-07-04T12:51:26.619Z,7.97
2018-07-04T12:53:58.082Z,8.03
2018-07-04T12:56:37.514Z,7.00
2018-07-04T12:59:17.093Z,7.13
2018-07-04T13:01:56.706Z,6.77
2018-07-04T13:04:36.217Z,7.20
2018-07-04T13:07:15.961Z,6.90
2018-07-04T13:09:55.577Z,7.63
2018-07-04T13:12:35.307Z,7.30
2018-07-04T13:15:14.825Z,6.93
2018-07-04T13:17:54.523Z,7.93
2018-07-04T13:20:34.117Z,6.67
2018-07-04T13:23:13.789Z,7.20
2018-07-04T13:25:53.238Z,5.90
2018-07-04T13:28:32.833Z,7.03
2018-07-04T13:31:12.354Z,7.30
2018-07-04T13:33:51.913Z,7.43
2018-07-04T13:36:31.566Z,6.63
2018-07-04T13:39:11.263Z,6.93
2018-07-04T13:41:51.074Z,7.33
2018-07-04T13:44:30.687Z,6.93
2018-07-04T13:47:10.281Z,7.03
2018-07-04T13:49:49.996Z,6.63
2018-07-04T13:52:29.569Z,6.93
2018-07-04T13:55:08.993Z,7.03
2018-07-04T13:57:48.481Z,6.90
2018-07-04T14:00:28.157Z,6.77
2018-07-04T14:03:07.878Z,7.10
2018-07-04T14:05:47.492Z,7.23
2018-07-04T14:08:27.093Z,7.67
2018-07-04T14:11:06.572Z,7.03
2018-07-04T14:13:46.234Z,6.93
2018-07-04T14:16:25.874Z,6.90
2018-07-04T14:19:05.806Z,7.33
2018-07-04T14:21:45.430Z,6.93
2018-07-04T14:24:24.865Z,7.17
2018-07-04T14:27:04.602Z,7.10
2018-07-04T14:29:44.253Z,7.60
2018-07-04T14:32:23.775Z,7.57
2018-07-04T14:35:03.438Z,7.50
2018-07-04T14:37:43.074Z,8.07
2018-07-04T14:40:22.705Z,8.10
2018-07-04T14:43:02.314Z,8.33
2018-07-04T14:45:41.718Z,7.60
2018-07-04T14:48:21.364Z,8.27
2018-07-04T14:51:01.071Z,7.50
2018-07-04T14:53:40.810Z,7.30
2018-07-04T14:56:20.466Z,7.00
2018-07-04T14:59:00.179Z,7.40
2018-07-04T15:01:39.763Z,8.40
2018-07-04T15:04:19.828Z,8.30
2018-07-04T15:06:59.556Z,7.80
2018-07-04T15:09:38.984Z,6.60
2018-07-04T15:12:18.592Z,5.60
2018-07-04T15:14:58.063Z,6.27
2018-07-04T15:17:37.569Z,6.77
2018-07-04T15:20:16.934Z,6.77
2018-07-04T15:22:56.452Z,7.53
2018-07-04T15:25:36.010Z,9.03
2018-07-04T15:28:15.538Z,8.83
2018-07-04T15:30:55.063Z,9.70
2018-07-04T15:33:34.708Z,4.53
2018-07-04T15:36:14.351Z,4.27
2018-07-04T15:38:54.310Z,3.50
2018-07-04T15:41:33.954Z,6.43
2018-07-04T15:44:13.520Z,6.20
2018-07-04T15:46:52.954Z,5.70
2018-07-04T15:49:32.594Z,5.30
2018-07-04T15:52:12.162Z,5.70
2018-07-04T15:54:51.791Z,5.40
2018-07-04T15:57:31.317Z,6.10
2018-07-04T16:00:10.831Z,5.80
2018-07-04T16:02:50.482Z,5.77
2018-07-04T16:05:30.148Z,5.67
2018-07-04T16:08:09.774Z,6.20
2018-07-04T16:10:49.233Z,6.63
2018-07-04T16:13:28.889Z,6.50
2018-07-04T16:16:08.602Z,7.10
2018-07-04T16:18:48.117Z,5.30
2018-07-04T16:21:28.058Z,5.13
2018-07-04T16:24:07.621Z,5.43
2018-07-04T16:26:47.228Z,6.23
2018-07-04T16:29:26.781Z,6.00
2018-07-04T16:32:06.169Z,5.60
2018-07-04T16:34:45.858Z,6.73
2018-07-04T16:37:25.570Z,6.70
2018-07-04T16:40:05.233Z,7.37
2018-07-04T16:42:44.869Z,7.17
2018-07-04T16:45:24.542Z,7.00
2018-07-04T16:48:04.377Z,7.60
2018-07-04T16:50:43.944Z,6.60
2018-07-04T16:53:23.465Z,6.23
2018-07-04T16:56:03.482Z,6.73
2018-07-04T16:58:43.351Z,7.07
2018-07-04T17:01:22.981Z,7.00
2018-07-04T17:04:02.764Z,7.40
2018-07-04T17:06:42.486Z,8.00
2018-07-04T17:09:22.176Z,7.50
2018-07-04T17:12:02.328Z,7.67
2018-07-04T17:14:41.893Z,6.83
2018-07-04T17:17:21.568Z,7.60
2018-07-04T17:20:01.033Z,7.87
2018-07-04T17:22:40.689Z,7.60
2018-07-04T17:25:20.111Z,8.50
2018-07-04T17:27:59.596Z,8.37
2018-07-04T17:30:39.055Z,8.53
2018-07-04T17:33:18.640Z,7.67
2018-07-04T17:35:58.362Z,9.07
2018-07-04T17:38:37.818Z,8.10
2018-07-04T17:41:17.424Z,8.47
2018-07-04T17:43:57.916Z,7.90
2018-07-04T17:46:37.353Z,7.50
2018-07-04T17:49:16.877Z,7.60
2018-07-04T17:51:56.245Z,6.93
2018-07-04T17:54:35.834Z,7.10
2018-07-04T17:57:15.486Z,7.00
2018-07-04T17:59:55.034Z,7.50
2018-07-04T18:02:34.566Z,8.20
2018-07-04T18:05:14.238Z,7.17
2018-07-04T18:07:53.779Z,7.50
2018-07-04T18:10:33.413Z,8.00
2018-07-04T18:13:12.957Z,8.00
2018-07-04T18:15:52.573Z,8.00
2018-07-04T18:18:32.082Z,7.27
2018-07-04T18:21:17.276Z,7.97
2018-07-04T18:23:56.835Z,8.13
2018-07-04T18:26:36.516Z,8.20
2018-07-04T18:29:16.154Z,8.23
2018-07-04T18:31:55.705Z,8.40
2018-07-04T18:34:35.331Z,8.23
2018-07-04T18:37:14.932Z,7.47
2018-07-04T18:39:54.358Z,7.00
2018-07-04T18:42:34.093Z,7.70
2018-07-04T18:45:13.655Z,8.13
2018-07-04T18:47:53.460Z,8.40
2018-07-04T18:50:33.019Z,8.33
2018-07-04T18:53:12.471Z,7.80
2018-07-04T18:55:52.057Z,8.47
2018-07-04T18:58:31.601Z,7.13
2018-07-04T19:01:11.776Z,8.37
2018-07-04T19:03:55.818Z,8.27
2018-07-04T19:06:35.494Z,8.23
2018-07-04T19:09:15.168Z,7.93
2018-07-04T19:11:54.678Z,7.83
2018-07-04T19:14:34.429Z,9.00
2018-07-04T19:17:14.061Z,8.10
2018-07-04T19:19:53.660Z,8.30
2018-07-04T19:22:34.229Z,7.37
2018-07-04T19:25:14.071Z,8.17
2018-07-04T19:27:53.705Z,7.40
2018-07-04T19:30:33.313Z,7.43
2018-07-04T19:33:12.874Z,7.93
2018-07-04T19:35:52.473Z,7.60
2018-07-04T19:38:32.012Z,7.80
2018-07-04T19:41:11.655Z,8.17
2018-07-04T19:43:55.941Z,8.70
2018-07-04T19:46:35.700Z,8.37
2018-07-04T19:49:15.343Z,9.17
2018-07-04T19:51:54.968Z,7.57
2018-07-04T19:54:34.461Z,7.67
2018-07-04T19:57:14.010Z,7.73
2018-07-04T19:59:53.638Z,7.83
2018-07-04T20:02:33.251Z,7.87
2018-07-04T20:05:12.876Z,7.60
2018-07-04T20:07:52.578Z,6.97
2018-07-04T20:10:32.148Z,7.50
2018-07-04T20:13:11.595Z,7.10
2018-07-04T20:15:51.137Z,7.57
2018-07-04T20:18:30.656Z,6.70
2018-07-04T20:21:10.332Z,7.83
2018-07-04T20:23:49.996Z,7.50
2018-07-04T20:26:29.601Z,7.13
2018-07-04T20:29:09.207Z,7.10
2018-07-04T20:31:48.774Z,6.90
2018-07-04T20:34:28.356Z,7.73
2018-07-04T20:37:07.937Z,8.20
2018-07-04T20:39:48.054Z,6.77
2018-07-04T20:42:27.662Z,7.20
2018-07-04T20:45:07.394Z,6.67
2018-07-04T20:47:47.080Z,6.30
2018-07-04T20:50:26.559Z,6.60
2018-07-04T20:53:06.346Z,7.03
2018-07-04T20:55:45.948Z,6.63
2018-07-04T20:58:25.446Z,6.93
2018-07-04T21:01:05.021Z,6.60
2018-07-04T21:03:44.779Z,7.30
2018-07-04T21:06:24.356Z,7.20
2018-07-04T21:09:04.708Z,6.97
2018-07-04T21:11:44.226Z,6.93
2018-07-04T21:14:23.885Z,6.43
2018-07-04T21:17:03.397Z,7.67
2018-07-04T21:19:42.926Z,6.83
2018-07-04T21:22:22.529Z,6.90
2018-07-04T21:25:02.095Z,6.70
2018-07-04T21:27:41.713Z,6.77
2018-07-04T21:30:21.297Z,6.20
2018-07-04T21:33:00.957Z,6.67
2018-07-04T21:35:40.514Z,6.43
2018-07-04T21:38:20.194Z,6.87
2018-07-04T21:40:59.876Z,6.03
2018-07-04T21:43:39.414Z,6.63
2018-07-04T21:46:13.128Z,6.13
2018-07-04T21:48:52.799Z,6.20
2018-07-04T21:51:32.473Z,6.90
2018-07-04T21:54:12.218Z,7.20
2018-07-04T21:56:51.895Z,6.60
2018-07-04T21:59:31.482Z,6.70
2018-07-04T22:02:11.220Z,6.00
2018-07-04T22:04:50.803Z,6.07
2018-07-04T22:07:30.453Z,7.07
2018-07-04T22:10:09.992Z,6.40
2018-07-04T22:12:49.649Z,6.20
2018-07-04T22:15:29.173Z,6.83
2018-07-04T22:18:08.829Z,6.60
2018-07-04T22:20:48.527Z,6.53
2018-07-04T22:23:28.153Z,6.73
2018-07-04T22:26:08.043Z,6.57
2018-07-04T22:28:42.361Z,6.70
2018-07-04T22:31:21.738Z,6.20
2018-07-04T22:34:01.255Z,7.07
2018-07-04T22:36:40.618Z,6.93
2018-07-04T22:39:20.108Z,7.30
2018-07-04T22:41:59.505Z,6.23
2018-07-04T22:44:32.987Z,6.97
2018-07-04T22:47:12.501Z,6.40
2018-07-04T22:49:51.923Z,6.97
2018-07-04T22:52:31.466Z,6.40
2018-07-04T22:55:10.985Z,6.67
2018-07-04T22:57:50.558Z,6.70
2018-07-04T23:00:30.191Z,7.47
2018-07-04T23:03:09.650Z,6.77
2018-07-04T23:05:49.169Z,6.47
2018-07-04T23:08:28.696Z,6.17
2018-07-04T23:11:08.377Z,6.00
2018-07-04T23:13:47.927Z,7.43
2018-07-04T23:16:27.409Z,6.73
2018-07-04T23:19:07.073Z,6.77
2018-07-04T23:21:46.714Z,7.03
2018-07-04T23:24:26.254Z,7.00
2018-07-04T23:27:05.740Z,7.37
2018-07-04T23:29:45.337Z,6.73
2018-07-04T23:32:25.070Z,7.10
2018-07-04T23:35:04.572Z,6.37
2018-07-04T23:37:43.988Z,6.33
2018-07-04T23:40:23.586Z,6.87
2018-07-04T23:43:03.309Z,6.30
2018-07-04T23:45:42.917Z,6.50
2018-07-04T23:48:22.225Z,6.10
2018-07-04T23:51:01.877Z,6.23
2018-07-04T23:53:41.383Z,5.73
2018-07-04T23:56:21.003Z,6.80
2018-07-04T23:59:00.570Z,6.70
